Autaugaville, Alabama
Current Conditions -  °F | °C
As of 4:15 AM on Tuesday 27 Jan 2015 (Local Time) from K1A9 Reporting Station
Clear Clear  
Wind Chill: -2°   Ceiling: Unl
Heat Index: -2°   Visibility: 10mi
Dew Point: -2°   Wind: 0mph
Humidity: 99%   Direction: NA
Pressure: 29.93"   Gusts: NA
Location:  32.43°N, 86.65°W
Report Text: K1A9 271015Z AUTO 00000KT 10SM CLR M02/M02 A2993 RMK AO2 T10201022
Loading
Personal Weather Stations






























Interactive Weather Map New forecast layout! Learn more

10-Day Weather Forecast

Advertisements
Track Severe Weather on mobile